Time;durP1;ratioP1;P1;durP2;ratioP2;P2;SDS_P1;SDS_P2;PMS_P1;PMS_P2;Temp;Humidity;BMP_temperature;BMP_pressure;BME280_temperature;BME280_humidity;BME280_pressure;Samples;Min_cycle;Max_cycle;Signal;HPM_P1;HPM_P2
2022/10/01 00:01:13;;;;;;;6.47;5.38;;;;;;;-145.49;100.00;62790.56;4967903;28;20046;-71
2022/10/01 00:03:46;;;;;;;8.50;6.50;;;;;;;-145.49;100.00;62790.56;4965780;28;20040;-71
2022/10/01 00:06:18;;;;;;;8.05;5.15;;;;;;;-145.49;100.00;62790.56;4971182;28;20031;-71
2022/10/01 00:08:49;;;;;;;7.35;6.60;;;;;;;-145.49;100.00;62790.56;4955618;28;20483;-71
2022/10/01 00:11:23;;;;;;;7.82;4.70;;;;;;;-145.49;100.00;62790.56;4969282;28;20058;-71
2022/10/01 00:13:53;;;;;;;6.45;5.13;;;;;;;-145.49;100.00;62790.56;4960338;28;20397;-72
2022/10/01 00:16:24;;;;;;;9.98;5.82;;;;;;;-145.49;100.00;62790.56;4955905;28;20046;-72
2022/10/01 00:18:57;;;;;;;15.80;5.38;;;;;;;-145.49;100.00;62790.56;4970136;28;20035;-72
2022/10/01 00:21:36;;;;;;;7.35;6.53;;;;;;;-145.49;100.00;62790.56;4955135;28;20041;-72
2022/10/01 00:24:04;;;;;;;9.35;6.25;;;;;;;-145.49;100.00;62790.56;4955810;28;20058;-71
2022/10/01 00:26:37;;;;;;;9.50;8.38;;;;;;;-145.49;100.00;62790.56;4954094;28;20038;-71
2022/10/01 00:29:08;;;;;;;12.43;6.80;;;;;;;-145.49;100.00;62790.56;4937073;28;20050;-71
2022/10/01 00:31:35;;;;;;;21.50;7.35;;;;;;;-145.49;100.00;62790.56;4954984;28;20413;-72
2022/10/01 00:34:06;;;;;;;11.70;6.50;;;;;;;-145.49;100.00;62790.56;4974787;28;20512;-71
2022/10/01 00:36:35;;;;;;;14.48;7.88;;;;;;;-145.49;100.00;62790.56;4952844;28;20047;-71
2022/10/01 00:39:01;;;;;;;27.13;9.27;;;;;;;-145.49;100.00;62790.56;4970032;28;20481;-71
2022/10/01 00:41:32;;;;;;;12.02;7.25;;;;;;;-145.49;100.00;62790.56;4954008;28;20043;-71
2022/10/01 00:44:21;;;;;;;;;;;;;;;-145.49;100.00;62790.56;4958587;28;20034;-70
2022/10/01 00:46:50;;;;;;;42.78;15.55;;;;;;;-145.49;100.00;62790.56;4955998;28;20001;-71
2022/10/01 00:49:23;;;;;;;12.15;8.43;;;;;;;-145.49;100.00;62790.56;4954068;28;20031;-71
2022/10/01 00:51:56;;;;;;;10.25;6.85;;;;;;;-145.49;100.00;62790.56;4954492;28;20065;-71
2022/10/01 00:54:29;;;;;;;;;;;;;;;-145.49;100.00;62790.56;4980426;28;20504;-71
2022/10/01 00:57:01;;;;;;;19.17;8.68;;;;;;;-145.49;100.00;62790.56;4967293;28;20320;-71
2022/10/01 00:59:28;;;;;;;54.58;11.52;;;;;;;-145.49;100.00;62790.56;4954251;28;20039;-71
2022/10/01 01:01:57;;;;;;;12.35;6.65;;;;;;;-145.49;100.00;62790.56;4952744;28;20042;-71
2022/10/01 01:04:26;;;;;;;12.32;8.82;;;;;;;-145.49;100.00;62790.56;4955392;28;20050;-71
2022/10/01 01:06:59;;;;;;;8.18;6.63;;;;;;;-145.49;100.00;62790.56;4950630;28;20035;-71
2022/10/01 01:09:34;;;;;;;7.28;6.03;;;;;;;-145.49;100.00;62790.56;4951953;28;20035;-71
2022/10/01 01:12:15;;;;;;;8.30;7.47;;;;;;;-145.49;100.00;62790.56;4953949;28;20703;-71
2022/10/01 01:15:09;;;;;;;8.40;7.10;;;;;;;-145.49;100.00;62790.56;4963169;28;20046;-71
2022/10/01 01:18:11;;;;;;;9.90;6.38;;;;;;;-145.49;100.00;62790.56;4965399;28;20051;-71
2022/10/01 01:21:02;;;;;;;9.98;6.35;;;;;;;-145.49;100.00;62790.56;4948355;28;20055;-71
2022/10/01 01:23:51;;;;;;;8.32;6.68;;;;;;;-145.49;100.00;62790.56;4961570;28;20047;-71
2022/10/01 01:27:05;;;;;;;28.15;10.85;;;;;;;-145.49;100.00;62790.56;4975721;28;20499;-72
2022/10/01 01:29:43;;;;;;;28.00;9.70;;;;;;;-145.49;100.00;62790.56;4966521;28;20046;-71
2022/10/01 01:32:21;;;;;;;18.05;10.25;;;;;;;-145.49;100.00;62790.56;4965248;28;20051;-71
2022/10/01 01:34:51;;;;;;;35.33;8.77;;;;;;;-145.49;100.00;62790.56;4963823;28;20039;-71
2022/10/01 01:37:22;;;;;;;21.75;9.75;;;;;;;-145.49;100.00;62790.56;4958117;28;20051;-71
2022/10/01 01:39:55;;;;;;;45.08;10.75;;;;;;;-145.49;100.00;62790.56;4952983;28;20512;-71
2022/10/01 01:42:35;;;;;;;21.27;8.68;;;;;;;-145.49;100.00;62790.56;4970364;28;20397;-72
2022/10/01 01:45:08;;;;;;;18.52;8.60;;;;;;;-145.49;100.00;62790.56;4975351;28;20049;-72
2022/10/01 01:47:37;;;;;;;25.83;7.88;;;;;;;-145.49;100.00;62790.56;4968450;28;20050;-72
2022/10/01 01:50:07;;;;;;;29.85;9.98;;;;;;;-145.49;100.00;62790.56;4950845;28;20031;-72
2022/10/01 01:52:33;;;;;;;25.45;8.82;;;;;;;-145.49;100.00;62790.56;4954126;28;20040;-72
2022/10/01 01:55:04;;;;;;;24.05;9.93;;;;;;;-145.49;100.00;62790.56;4957013;28;20417;-73
2022/10/01 01:57:38;;;;;;;20.30;8.25;;;;;;;-145.49;100.00;62790.56;4969088;28;20044;-72
2022/10/01 02:00:04;;;;;;;17.30;8.02;;;;;;;-145.49;100.00;62790.56;4967666;28;20030;-72
2022/10/01 02:02:38;;;;;;;14.18;9.27;;;;;;;-145.49;100.00;62790.56;4955398;28;20039;-72
2022/10/01 02:05:09;;;;;;;34.70;10.55;;;;;;;-145.49;100.00;62790.56;4968245;28;20039;-72
2022/10/01 02:07:51;;;;;;;58.75;9.82;;;;;;;-145.49;100.00;62790.56;4972328;28;20054;-72
2022/10/01 02:10:31;;;;;;;21.85;9.63;;;;;;;-145.49;100.00;62790.56;4963074;28;20046;-72
2022/10/01 02:13:22;;;;;;;13.90;7.32;;;;;;;-145.49;100.00;62790.56;4953707;28;20031;-72
2022/10/01 02:16:17;;;;;;;8.52;6.82;;;;;;;-145.49;100.00;62790.56;4967141;28;20043;-71
2022/10/01 02:18:57;;;;;;;10.57;6.82;;;;;;;-145.49;100.00;62790.56;4959911;28;20494;-72
2022/10/01 02:21:29;;;;;;;13.80;8.20;;;;;;;-145.49;100.00;62790.56;4950601;28;20042;-71
2022/10/01 02:24:05;;;;;;;14.13;7.97;;;;;;;-145.49;100.00;62790.56;4951724;28;20039;-72
2022/10/01 02:26:37;;;;;;;13.23;8.52;;;;;;;-145.49;100.00;62790.56;4953303;28;20046;-72
2022/10/01 02:29:10;;;;;;;8.80;6.57;;;;;;;-145.49;100.00;62790.56;4950979;28;20142;-72
2022/10/01 02:31:40;;;;;;;10.65;6.82;;;;;;;-145.49;100.00;62790.56;4952420;28;20046;-72
2022/10/01 02:34:07;;;;;;;10.88;8.52;;;;;;;-145.49;100.00;62790.56;4955015;28;20039;-71
2022/10/01 02:36:41;;;;;;;12.50;6.70;;;;;;;-145.49;100.00;62790.56;4952003;28;20040;-71
2022/10/01 02:39:14;;;;;;;10.07;7.00;;;;;;;-145.49;100.00;62790.56;4966967;28;20389;-71
2022/10/01 02:41:43;;;;;;;9.85;7.00;;;;;;;-145.49;100.00;62790.56;4964880;28;20043;-71
2022/10/01 02:44:20;;;;;;;6.20;5.43;;;;;;;-145.49;100.00;62790.56;4949283;28;20043;-71
2022/10/01 02:46:56;;;;;;;8.15;7.07;;;;;;;-145.49;100.00;62790.56;4965942;28;20106;-71
2022/10/01 02:49:24;;;;;;;10.02;6.13;;;;;;;-145.49;100.00;62790.56;4967429;28;20031;-71
2022/10/01 02:52:07;;;;;;;8.43;5.35;;;;;;;-145.49;100.00;62790.56;4949215;28;20046;-71
2022/10/01 02:54:49;;;;;;;8.32;7.45;;;;;;;-145.49;100.00;62790.56;4952819;28;20046;-71
2022/10/01 02:57:22;;;;;;;6.50;5.88;;;;;;;-145.49;100.00;62790.56;4950588;28;20035;-71
2022/10/01 02:59:58;;;;;;;10.02;5.57;;;;;;;-145.49;100.00;62790.56;4962595;28;20070;-71
2022/10/01 03:02:26;;;;;;;9.20;5.20;;;;;;;-145.49;100.00;62790.56;4961269;28;20039;-72
2022/10/01 03:04:56;;;;;;;8.30;6.65;;;;;;;-145.49;100.00;62790.56;4937678;28;20046;-71
2022/10/01 03:07:27;;;;;;;9.73;7.22;;;;;;;-145.49;100.00;62790.56;4968056;28;20047;-71
2022/10/01 03:09:56;;;;;;;7.05;6.45;;;;;;;-145.49;100.00;62790.56;4951378;28;20078;-72
2022/10/01 03:12:24;;;;;;;7.30;6.70;;;;;;;-145.49;100.00;62790.56;4964398;28;20060;-71
2022/10/01 03:14:52;;;;;;;9.70;6.38;;;;;;;-145.49;100.00;62790.56;4958617;28;20043;-71
2022/10/01 03:17:21;;;;;;;6.95;6.25;;;;;;;-145.49;100.00;62790.56;4967600;28;20050;-71
2022/10/01 03:19:49;;;;;;;7.35;5.78;;;;;;;-145.49;100.00;62790.56;4952421;28;20039;-71
2022/10/01 03:22:21;;;;;;;8.60;6.07;;;;;;;-145.49;100.00;62790.56;4966316;28;20031;-73
2022/10/01 03:24:51;;;;;;;8.00;5.53;;;;;;;-145.49;100.00;62790.56;4965359;28;20035;-73
2022/10/01 03:27:24;;;;;;;9.05;6.07;;;;;;;-145.49;100.00;62790.56;4957228;28;20405;-73
2022/10/01 03:29:52;;;;;;;7.60;5.80;;;;;;;-145.49;100.00;62790.56;4966325;28;20035;-72
2022/10/01 03:32:23;;;;;;;7.20;6.30;;;;;;;-145.49;100.00;62790.56;4964515;28;20054;-73
2022/10/01 03:34:49;;;;;;;10.38;7.30;;;;;;;-145.49;100.00;62790.56;4951031;28;20042;-72
2022/10/01 03:37:18;;;;;;;5.80;5.20;;;;;;;-145.49;100.00;62790.56;4952114;28;20031;-73
2022/10/01 03:39:44;;;;;;;6.20;4.97;;;;;;;-145.49;100.00;62790.56;4951971;28;20043;-73
2022/10/01 03:42:10;;;;;;;7.95;6.00;;;;;;;-145.49;100.00;62790.56;4950638;28;20027;-73
2022/10/01 03:44:39;;;;;;;10.52;6.75;;;;;;;-145.49;100.00;62790.56;4953626;28;20042;-73
2022/10/01 03:47:05;;;;;;;9.23;6.07;;;;;;;-145.49;100.00;62790.56;4967003;28;20390;-73
2022/10/01 03:49:34;;;;;;;7.95;6.25;;;;;;;-145.49;100.00;62790.56;4952504;28;20511;-72
2022/10/01 03:52:04;;;;;;;13.85;5.60;;;;;;;-145.49;100.00;62790.56;4948555;28;20031;-72
2022/10/01 03:54:30;;;;;;;13.05;6.22;;;;;;;-145.49;100.00;62790.56;4958717;28;20354;-72
2022/10/01 03:56:56;;;;;;;8.13;6.53;;;;;;;-145.49;100.00;62790.56;4952695;28;20042;-72
2022/10/01 03:59:28;;;;;;;5.75;5.25;;;;;;;-145.49;100.00;62790.56;4950693;28;20031;-73
2022/10/01 04:01:54;;;;;;;7.22;6.55;;;;;;;-145.49;100.00;62790.56;4950549;28;20493;-72
2022/10/01 04:04:27;;;;;;;7.50;5.80;;;;;;;-145.49;100.00;62790.56;4950497;28;20039;-72
2022/10/01 04:06:56;;;;;;;8.27;5.95;;;;;;;-145.49;100.00;62790.56;4973748;28;20043;-72
2022/10/01 04:09:22;;;;;;;6.63;6.00;;;;;;;-145.49;100.00;62790.56;4946044;28;20534;-72
2022/10/01 04:11:51;;;;;;;8.43;6.90;;;;;;;-145.49;100.00;62790.56;4965194;28;20047;-72
2022/10/01 04:14:20;;;;;;;6.43;5.10;;;;;;;-145.49;100.00;62790.56;4965811;28;20054;-72
2022/10/01 04:16:48;;;;;;;10.20;8.20;;;;;;;-145.49;100.00;62790.56;4969025;28;20056;-72
2022/10/01 04:19:16;;;;;;;6.25;5.65;;;;;;;-145.49;100.00;62790.56;4952429;28;20054;-72
2022/10/01 04:21:43;;;;;;;6.40;5.78;;;;;;;-145.49;100.00;62790.56;4951480;28;20039;-72
2022/10/01 04:24:09;;;;;;;8.88;6.40;;;;;;;-145.49;100.00;62790.56;4950912;28;20413;-72
2022/10/01 04:26:40;;;;;;;7.78;6.65;;;;;;;-145.49;100.00;62790.56;4950054;28;20044;-72
2022/10/01 04:29:06;;;;;;;7.13;5.40;;;;;;;-145.49;100.00;62790.56;4959816;28;20493;-72
2022/10/01 04:31:33;;;;;;;6.65;5.70;;;;;;;-145.49;100.00;62790.56;4960364;28;20075;-72
2022/10/01 04:34:00;;;;;;;7.53;6.65;;;;;;;-145.49;100.00;62790.56;4964262;28;20031;-73
2022/10/01 04:36:29;;;;;;;6.95;6.35;;;;;;;-145.49;100.00;62790.56;4968190;28;20050;-71
2022/10/01 04:38:58;;;;;;;9.55;7.65;;;;;;;-145.49;100.00;62790.56;4950734;28;20046;-71
2022/10/01 04:41:24;;;;;;;7.80;6.15;;;;;;;-145.49;100.00;62790.56;4964946;28;20043;-71
2022/10/01 04:43:58;;;;;;;7.18;6.20;;;;;;;-145.49;100.00;62790.56;4959765;28;20051;-72
2022/10/01 04:46:24;;;;;;;7.35;5.63;;;;;;;-145.49;100.00;62790.56;4952816;28;20058;-72
2022/10/01 04:48:50;;;;;;;9.25;6.13;;;;;;;-145.49;100.00;62790.56;4953879;28;20039;-72
2022/10/01 04:51:17;;;;;;;6.70;5.78;;;;;;;-145.49;100.00;62790.56;4968633;28;20043;-72
2022/10/01 04:53:43;;;;;;;12.32;7.97;;;;;;;-145.49;100.00;62790.56;4958539;28;20046;-72
2022/10/01 04:56:14;;;;;;;6.53;5.85;;;;;;;-145.49;100.00;62790.56;4962209;28;20058;-72
2022/10/01 04:58:40;;;;;;;8.75;5.80;;;;;;;-145.49;100.00;62790.56;4968690;28;20046;-71
2022/10/01 05:01:09;;;;;;;6.80;6.05;;;;;;;-145.49;100.00;62790.56;4966237;28;20050;-71
2022/10/01 05:03:38;;;;;;;9.77;7.00;;;;;;;-145.49;100.00;62790.56;4960702;28;20034;-72
2022/10/01 05:06:07;;;;;;;7.57;6.68;;;;;;;-145.49;100.00;62790.56;4981533;28;20515;-72
2022/10/01 05:08:33;;;;;;;11.38;6.72;;;;;;;-145.49;100.00;62790.56;4967739;28;20356;-72
2022/10/01 05:11:06;;;;;;;9.95;8.32;;;;;;;-145.49;100.00;62790.56;4951530;28;20035;-71
2022/10/01 05:13:34;;;;;;;8.15;6.97;;;;;;;-145.49;100.00;62790.56;4968834;28;20043;-72
2022/10/01 05:16:02;;;;;;;7.03;6.43;;;;;;;-145.49;100.00;62790.56;4966855;28;20042;-73
2022/10/01 05:18:31;;;;;;;8.35;6.97;;;;;;;-145.49;100.00;62790.56;4966120;28;20044;-72
2022/10/01 05:21:07;;;;;;;5.88;4.78;;;;;;;-145.49;100.00;62790.56;4969007;28;20035;-72
2022/10/01 05:23:33;;;;;;;;;;;;;;;-145.49;100.00;62790.56;4992335;23;20385;-84
2022/10/01 05:25:59;;;;;;;7.45;6.38;;;;;;;-145.49;100.00;62790.56;4991767;28;19920;-84
2022/10/01 05:28:26;;;;;;;9.70;7.20;;;;;;;-145.49;100.00;62790.56;5005498;28;20042;-84
2022/10/01 05:30:52;;;;;;;7.18;5.22;;;;;;;-145.49;100.00;62790.56;4991453;28;20030;-84
2022/10/01 05:33:19;;;;;;;8.60;6.85;;;;;;;-145.49;100.00;62790.56;4990599;28;20038;-84
2022/10/01 05:35:52;;;;;;;7.18;6.28;;;;;;;-145.49;100.00;62790.56;4987647;28;20046;-81
2022/10/01 05:38:20;;;;;;;6.82;5.90;;;;;;;-145.49;100.00;62790.56;4985169;28;20030;-81
2022/10/01 05:40:49;;;;;;;9.18;6.63;;;;;;;-145.49;100.00;62790.56;4973714;28;20065;-82
2022/10/01 05:43:17;;;;;;;7.47;6.45;;;;;;;-145.49;100.00;62790.56;4988348;28;20026;-81
2022/10/01 05:45:50;;;;;;;12.20;7.38;;;;;;;-145.49;100.00;62790.56;4988509;28;20050;-82
2022/10/01 05:48:16;;;;;;;9.98;8.45;;;;;;;-145.49;100.00;62790.56;5000206;28;20035;-81
2022/10/01 05:50:49;;;;;;;8.27;6.72;;;;;;;-145.49;100.00;62790.56;4985986;28;20093;-81
2022/10/01 05:53:17;;;;;;;9.38;7.65;;;;;;;-145.49;100.00;62790.56;4989079;28;20038;-81
2022/10/01 05:55:48;;;;;;;10.13;6.15;;;;;;;-145.49;100.00;62790.56;4985599;28;20035;-81
2022/10/01 05:58:17;;;;;;;8.30;6.70;;;;;;;-145.49;100.00;62790.56;4986028;28;20034;-81
2022/10/01 06:00:43;;;;;;;8.00;7.20;;;;;;;-145.49;100.00;62790.56;4981864;28;20038;-81
2022/10/01 06:03:11;;;;;;;7.65;6.10;;;;;;;-145.49;100.00;62790.56;4986308;28;20385;-81
2022/10/01 06:05:38;;;;;;;10.65;7.32;;;;;;;-145.49;100.00;62790.56;4990957;28;21354;-82
2022/10/01 06:08:08;;;;;;;8.18;5.88;;;;;;;-145.49;100.00;62790.56;5002278;28;20045;-81
2022/10/01 06:10:35;;;;;;;9.00;8.05;;;;;;;-145.49;100.00;62790.56;4984754;28;20030;-81
2022/10/01 06:13:06;;;;;;;9.00;7.07;;;;;;;-145.49;100.00;62790.56;4992456;28;20037;-81
2022/10/01 06:15:37;;;;;;;7.68;6.20;;;;;;;-145.49;100.00;62790.56;4990193;28;20038;-81
2022/10/01 06:18:12;;;;;;;8.13;6.97;;;;;;;-145.49;100.00;62790.56;4987729;28;20043;-81
2022/10/01 06:20:39;;;;;;;10.25;8.10;;;;;;;-145.49;100.00;62790.56;4989053;28;20034;-81
2022/10/01 06:23:11;;;;;;;6.78;5.68;;;;;;;-145.49;100.00;62790.56;4971161;28;20042;-81
2022/10/01 06:25:45;;;;;;;9.88;7.35;;;;;;;-145.49;100.00;62790.56;4990129;28;20041;-81
2022/10/01 06:28:15;;;;;;;7.60;6.70;;;;;;;-145.49;100.00;62790.56;4987887;28;20083;-81
2022/10/01 06:30:42;;;;;;;10.70;7.22;;;;;;;-145.49;100.00;62790.56;4986045;28;20027;-80
2022/10/01 06:33:13;;;;;;;8.35;7.43;;;;;;;-145.49;100.00;62790.56;4970863;28;20049;-82
2022/10/01 06:35:46;;;;;;;12.13;8.55;;;;;;;-145.49;100.00;62790.56;4998164;28;20026;-81
2022/10/01 06:38:16;;;;;;;13.10;9.38;;;;;;;-145.49;100.00;62790.56;4990055;28;20042;-81
2022/10/01 06:40:42;;;;;;;10.60;9.50;;;;;;;-145.49;100.00;62790.56;4989958;28;20045;-84
2022/10/01 06:43:09;;;;;;;8.73;7.82;;;;;;;-145.49;100.00;62790.56;4981808;28;20385;-81
2022/10/01 06:45:42;;;;;;;11.35;9.20;;;;;;;-145.49;100.00;62790.56;4987755;28;20033;-81
2022/10/01 06:48:13;;;;;;;13.68;11.50;;;;;;;-145.49;100.00;62790.56;4983066;28;20050;-80
2022/10/01 06:50:43;;;;;;;10.05;9.02;;;;;;;-145.49;100.00;62790.56;4986169;28;20049;-81
2022/10/01 06:53:16;;;;;;;11.10;9.80;;;;;;;-145.49;100.00;62790.56;4977587;28;20034;-81
2022/10/01 06:55:45;;;;;;;9.85;8.95;;;;;;;-145.49;100.00;62790.56;4974772;28;20053;-81
2022/10/01 06:58:14;;;;;;;10.80;7.85;;;;;;;-145.49;100.00;62790.56;4985715;28;20053;-81
2022/10/01 07:00:43;;;;;;;10.70;9.27;;;;;;;-145.49;100.00;62790.56;4993514;28;20046;-81
2022/10/01 07:03:20;;;;;;;10.30;8.57;;;;;;;-145.49;100.00;62790.56;5007913;28;20038;-81
2022/10/01 07:05:48;;;;;;;10.48;9.35;;;;;;;-145.49;100.00;62790.56;4990509;28;20058;-81
2022/10/01 07:08:21;;;;;;;9.93;8.13;;;;;;;-145.49;100.00;62790.56;4993915;28;20049;-81
2022/10/01 07:10:47;;;;;;;8.65;7.80;;;;;;;-145.49;100.00;62790.56;5008695;28;20045;-82
2022/10/01 07:13:19;;;;;;;13.13;9.20;;;;;;;-145.49;100.00;62790.56;4988601;28;20037;-80
2022/10/01 07:15:52;;;;;;;12.02;8.27;;;;;;;-145.49;100.00;62790.56;4982564;28;20038;-80
2022/10/01 07:18:23;;;;;;;9.65;7.63;;;;;;;-145.49;100.00;62790.56;4983964;28;20487;-81
2022/10/01 07:20:49;;;;;;;11.05;8.27;;;;;;;-145.49;100.00;62790.56;4984452;28;20045;-81
2022/10/01 07:23:16;;;;;;;11.60;8.27;;;;;;;-145.49;100.00;62790.56;5006882;28;20033;-81
2022/10/01 07:25:49;;;;;;;9.23;8.32;;;;;;;-145.49;100.00;62790.56;4983436;28;20034;-81
2022/10/01 07:28:22;;;;;;;10.27;9.27;;;;;;;-145.49;100.00;62790.56;4991509;28;20044;-81
2022/10/01 07:31:03;;;;;;;7.97;7.00;;;;;;;-145.49;100.00;62790.56;5006285;28;20488;-81
2022/10/01 07:33:37;;;;;;;7.90;6.47;;;;;;;-145.49;100.00;62790.56;4959858;28;20038;-81
2022/10/01 07:36:09;;;;;;;8.65;7.30;;;;;;;-145.49;100.00;62790.56;4991061;28;20030;-81
2022/10/01 07:38:38;;;;;;;8.10;7.03;;;;;;;-145.49;100.00;62790.56;4969477;28;20045;-82
2022/10/01 07:41:04;;;;;;;10.60;7.88;;;;;;;-145.49;100.00;62790.56;4989617;28;20030;-82
2022/10/01 07:43:36;;;;;;;9.90;8.25;;;;;;;-145.49;100.00;62790.56;4979853;28;20038;-82
2022/10/01 07:46:04;;;;;;;9.57;7.97;;;;;;;-145.49;100.00;62790.56;5002138;28;20400;-81
2022/10/01 07:48:35;;;;;;;13.23;10.15;;;;;;;-145.49;100.00;62790.56;4991908;28;20480;-82
2022/10/01 07:51:02;;;;;;;11.50;9.27;;;;;;;-145.49;100.00;62790.56;4988499;28;20045;-82
2022/10/01 07:53:31;;;;;;;10.82;9.73;;;;;;;-145.49;100.00;62790.56;4993911;28;20041;-82
2022/10/01 07:56:03;;;;;;;10.80;9.60;;;;;;;-145.49;100.00;62790.56;4989657;28;20040;-82
2022/10/01 07:58:31;;;;;;;10.13;9.10;;;;;;;-145.49;100.00;62790.56;5008142;28;20505;-81
2022/10/01 08:01:05;;;;;;;12.45;10.15;;;;;;;-145.49;100.00;62790.56;4987517;28;20042;-81
2022/10/01 08:03:34;;;;;;;10.90;6.82;;;;;;;-145.49;100.00;62790.56;4985251;28;20041;-81
2022/10/01 08:06:10;;;;;;;7.82;6.63;;;;;;;-145.49;100.00;62790.56;4986027;28;20105;-81
2022/10/01 08:08:39;;;;;;;8.48;6.20;;;;;;;-145.49;100.00;62790.56;4988493;28;20030;-82
2022/10/01 08:11:07;;;;;;;6.57;5.03;;;;;;;-145.49;100.00;62790.56;4975027;28;20030;-81
2022/10/01 08:13:38;;;;;;;5.25;4.35;;;;;;;-145.49;100.00;62790.56;4986566;28;20042;-80
2022/10/01 08:16:08;;;;;;;4.80;3.90;;;;;;;-145.49;100.00;62790.56;4989507;28;20034;-81
2022/10/01 08:18:39;;;;;;;4.15;3.55;;;;;;;-145.49;100.00;62790.56;4986154;28;20045;-81
2022/10/01 08:21:08;;;;;;;4.30;3.90;;;;;;;-145.49;100.00;62790.56;4983867;28;20034;-81
2022/10/01 08:23:39;;;;;;;7.25;3.90;;;;;;;-145.49;100.00;62790.56;4995562;28;20031;-81
2022/10/01 08:26:10;;;;;;;3.78;3.30;;;;;;;-145.49;100.00;62790.56;4991103;28;20030;-81
2022/10/01 08:28:36;;;;;;;3.92;3.50;;;;;;;-145.49;100.00;62790.56;4991012;28;20034;-81
2022/10/01 08:31:06;;;;;;;5.80;3.25;;;;;;;-145.49;100.00;62790.56;4986178;28;20065;-81
2022/10/01 08:33:35;;;;;;;5.57;3.08;;;;;;;-145.49;100.00;62790.56;4985776;28;20046;-81
2022/10/01 08:36:08;;;;;;;4.40;3.30;;;;;;;-145.49;100.00;62790.56;4992187;28;20046;-81
2022/10/01 08:38:39;;;;;;;5.30;3.00;;;;;;;-145.49;100.00;62790.56;5001483;28;20037;-81
2022/10/01 08:41:20;;;;;;;4.88;3.05;;;;;;;-145.49;100.00;62790.56;4995855;28;20476;-80
2022/10/01 08:43:52;;;;;;;2.38;2.10;;;;;;;-145.49;100.00;62790.56;5015623;28;20029;-80
2022/10/01 08:46:29;;;;;;;3.60;3.30;;;;;;;-145.49;100.00;62790.56;5017913;28;20022;-80
2022/10/01 08:49:14;;;;;;;3.80;2.55;;;;;;;-145.49;100.00;62790.56;5015596;28;20038;-79
2022/10/01 08:51:53;;;;;;;5.30;3.13;;;;;;;-145.49;100.00;62790.56;4996751;28;20038;-80
2022/10/01 08:54:36;;;;;;;3.67;2.75;;;;;;;-145.49;100.00;62790.56;4988713;28;20057;-80
2022/10/01 08:57:08;;;;;;;2.80;2.60;;;;;;;-145.49;100.00;62790.56;5001384;28;20042;-81
2022/10/01 08:59:54;;;;;;;5.13;3.30;;;;;;;-145.49;100.00;62790.56;5010897;28;20030;-80
2022/10/01 09:02:32;;;;;;;4.28;2.63;;;;;;;-145.49;100.00;62790.56;4991392;28;20042;-81
2022/10/01 09:05:04;;;;;;;3.95;2.92;;;;;;;-145.49;100.00;62790.56;4976565;28;20039;-81
2022/10/01 09:07:35;;;;;;;2.78;2.20;;;;;;;-145.49;100.00;62790.56;4979759;28;20425;-81
2022/10/01 09:10:20;;;;;;;4.68;2.70;;;;;;;-145.49;100.00;62790.56;4977531;28;20069;-82
2022/10/01 09:13:09;;;;;;;2.35;2.10;;;;;;;-145.49;100.00;62790.56;4993757;28;20034;-81
2022/10/01 09:15:37;;;;;;;2.67;2.08;;;;;;;-145.49;100.00;62790.56;4994426;28;20054;-79
2022/10/01 09:18:13;;;;;;;3.42;2.38;;;;;;;-145.49;100.00;62790.56;4992372;28;20053;-81
2022/10/01 09:20:51;;;;;;;2.65;2.13;;;;;;;-145.49;100.00;62790.56;4993685;28;20475;-81
2022/10/01 09:23:36;;;;;;;3.15;2.17;;;;;;;-145.49;100.00;62790.56;4993697;28;20061;-80
2022/10/01 09:26:10;;;;;;;2.58;2.03;;;;;;;-145.49;100.00;62790.56;4988755;28;20035;-82
2022/10/01 09:28:41;;;;;;;3.47;2.88;;;;;;;-145.49;100.00;62790.56;4988200;28;20405;-81
2022/10/01 09:31:19;;;;;;;3.05;2.40;;;;;;;-145.49;100.00;62790.56;4991994;28;20041;-81
2022/10/01 09:34:01;;;;;;;3.70;2.05;;;;;;;-145.49;100.00;62790.56;4990354;28;20050;-81
2022/10/01 09:36:59;;;;;;;4.78;2.70;;;;;;;-145.49;100.00;62790.56;4989249;28;20061;-81
2022/10/01 09:39:35;;;;;;;2.58;2.08;;;;;;;-145.49;100.00;62790.56;4991634;28;20038;-80
2022/10/01 09:42:06;;;;;;;3.15;2.70;;;;;;;-145.49;100.00;62790.56;4998601;28;20558;-81
2022/10/01 09:44:36;;;;;;;2.72;2.00;;;;;;;-145.49;100.00;62790.56;4992941;28;20026;-81
2022/10/01 09:47:16;;;;;;;3.67;2.33;;;;;;;-145.49;100.00;62790.56;4996704;28;20038;-81
2022/10/01 09:49:43;;;;;;;3.85;2.08;;;;;;;-145.49;100.00;62790.56;4997569;28;20046;-81
2022/10/01 09:52:27;;;;;;;5.35;2.65;;;;;;;-145.49;100.00;62790.56;4992550;28;20499;-81
2022/10/01 09:55:03;;;;;;;2.00;1.83;;;;;;;-145.49;100.00;62790.56;4992110;28;20049;-80
2022/10/01 09:57:36;;;;;;;3.17;2.88;;;;;;;-145.49;100.00;62790.56;4987264;28;20529;-80
2022/10/01 10:00:10;;;;;;;2.55;1.67;;;;;;;-145.49;100.00;62790.56;4974798;28;20065;-81
2022/10/01 10:02:43;;;;;;;4.35;1.90;;;;;;;-145.49;100.00;62790.56;4984587;28;20042;-80
2022/10/01 10:05:23;;;;;;;2.72;2.30;;;;;;;-145.49;100.00;62790.56;4987433;28;20038;-80
2022/10/01 10:07:51;;;;;;;3.28;2.50;;;;;;;-145.49;100.00;62790.56;4989795;28;20072;-80
2022/10/01 10:10:23;;;;;;;2.72;2.53;;;;;;;-145.49;100.00;62790.56;4991910;28;20034;-81
2022/10/01 10:13:04;;;;;;;2.58;2.08;;;;;;;-145.49;100.00;62790.56;4990316;28;20039;-80
2022/10/01 10:15:32;;;;;;;2.45;2.15;;;;;;;-145.49;100.00;62790.56;4987128;28;20496;-80
2022/10/01 10:18:07;;;;;;;2.55;1.73;;;;;;;-145.49;100.00;62790.56;4991367;28;20054;-80
2022/10/01 10:20:46;;;;;;;2.25;1.58;;;;;;;-145.49;100.00;62790.56;5004247;28;20061;-80
2022/10/01 10:23:21;;;;;;;2.17;1.83;;;;;;;-145.49;100.00;62790.56;4999250;28;20042;-81
2022/10/01 10:25:59;;;;;;;2.78;1.60;;;;;;;-145.49;100.00;62790.56;4988160;28;20026;-80
2022/10/01 10:28:39;;;;;;;2.55;2.20;;;;;;;-145.49;100.00;62790.56;4990337;28;20038;-80
2022/10/01 10:31:13;;;;;;;2.00;1.80;;;;;;;-145.49;100.00;62790.56;4991411;28;20037;-80
2022/10/01 10:33:50;;;;;;;2.97;2.15;;;;;;;-145.49;100.00;62790.56;4987366;28;20046;-80
2022/10/01 10:36:18;;;;;;;2.15;1.70;;;;;;;-145.49;100.00;62790.56;4990176;28;20049;-80
2022/10/01 10:38:52;;;;;;;2.60;1.98;;;;;;;-145.49;100.00;62790.56;4991426;28;20030;-80
2022/10/01 10:41:25;;;;;;;2.10;1.88;;;;;;;-145.49;100.00;62790.56;4984502;28;20049;-80
2022/10/01 10:44:15;;;;;;;2.13;1.50;;;;;;;-145.49;100.00;62790.56;4992178;28;20042;-80
2022/10/01 10:46:43;;;;;;;2.50;2.25;;;;;;;-145.49;100.00;62790.56;4990970;28;20041;-80
2022/10/01 10:49:20;;;;;;;1.83;1.73;;;;;;;-145.49;100.00;62790.56;4974665;28;20042;-80
2022/10/01 10:51:53;;;;;;;2.42;2.08;;;;;;;-145.49;100.00;62790.56;4993141;28;20046;-81
2022/10/01 10:54:32;;;;;;;1.75;1.42;;;;;;;-145.49;100.00;62790.56;4991033;28;20042;-86
2022/10/01 10:57:26;;;;;;;4.13;2.10;;;;;;;-145.49;100.00;62790.56;5006126;28;20045;-81
2022/10/01 11:00:11;;;;;;;2.40;2.20;;;;;;;-145.49;100.00;62790.56;4990268;28;20042;-81
2022/10/01 11:02:57;;;;;;;2.10;1.70;;;;;;;-145.49;100.00;62790.56;4992880;28;20038;-82
2022/10/01 11:05:30;;;;;;;1.85;1.63;;;;;;;-145.49;100.00;62790.56;4987573;28;20042;-81
2022/10/01 11:08:02;;;;;;;2.70;1.98;;;;;;;-145.49;100.00;62790.56;4989558;28;20152;-81
2022/10/01 11:10:33;;;;;;;2.65;1.33;;;;;;;-145.49;100.00;62790.56;4991294;28;20061;-81
2022/10/01 11:13:18;;;;;;;1.63;1.52;;;;;;;-145.49;100.00;62790.56;4998227;28;20050;-81
2022/10/01 11:16:21;;;;;;;2.03;1.35;;;;;;;-145.49;100.00;62790.56;5004478;28;20046;-81
2022/10/01 11:18:54;;;;;;;2.10;1.25;;;;;;;-145.49;100.00;62790.56;4975443;28;20404;-80
2022/10/01 11:21:45;;;;;;;2.33;1.92;;;;;;;-145.49;100.00;62790.56;4986776;28;20535;-81
2022/10/01 11:24:44;;;;;;;1.83;1.48;;;;;;;-145.49;100.00;62790.56;4998500;23;20279;-74
2022/10/01 11:27:37;;;;;;;3.28;1.52;;;;;;;-145.49;100.00;62790.56;4946960;28;20050;-75
2022/10/01 11:30:17;;;;;;;2.40;2.17;;;;;;;-145.49;100.00;62790.56;4979921;28;20058;-75
2022/10/01 11:33:03;;;;;;;1.48;1.30;;;;;;;-145.49;100.00;62790.56;4971583;28;20045;-74